-> Other stations

1455

Speed(max): 7(10.3)knots
Direction:132° ( SE)
Temperature: 20.7°C
Arrived: 2026-05-04 12:37:50 CEST

Past data:
hh:mmknots
Dir (°)
°C
12:35 6.5 9.2 SE(130) 20.8
12:33 7 8.6 ESE(118) 20.6
12:31 6.5 9.2 ESE(118) 20.5
12:29 7 9.2 SE(142) 21.0
12:27 5.4 7.6 SE(132) 21.0
12:25 4.9 7.6 SE(125) 21.1
12:23 6.5 8.6 SE(126) 20.5
12:21 6.5 8.6 ESE(108) 20.6
12:19 5.9 8.1 SE(128) 21.3
12:17 5.4 7.6 SE(125) 21.7
12:15 5.4 7 ESE(120) 21.6
12:13 5.4 7.6 ESE(122) 22.0
12:11 4.3 5.9 SE(138) 22.5
12:09 6.5 10.3 SE(124) 21.8
15 min. averages:
hh:mmknots
Dir (°)
°C
12:30 5.9 9.2 SE(126) 21.1
12:15 5.4 10.3 ESE(120) 22.0
12:00 6.5 8.6 ESE(118) 22.1
11:45 5.4 10.8 ESE(123) 22.6
11:30 3.8 7.6 ESE(122) 23.6
11:15 3.8 4.9 NNE(27) 22.1
11:00 3.8 4.9 NNE(32) 22.5
10:45 3.2 4.3 NNE(33) 22.4
10:30 3.2 4.9 NNE(33) 22.1
10:15 3.8 5.4 NNE(33) 22.7
10:00 2.2 3.8 NNE(33) 23.5
09:45 2.7 4.3 NE(34) 22.5
09:30 3.2 4.3 NE(44) 22.4
09:15 1.6 3.8 NE(52) 22.9
09:00 2.7 4.3 NE(52) 22.4
Stations at HR:
1455
-> Other regions

Desktop view
Data provided by Holfuy.
© Holfuy Weather 2026